Time;durP1;ratioP1;P1;durP2;ratioP2;P2;SDS_P1;SDS_P2;PMS_P1;PMS_P2;Temp;Humidity;BMP_temperature;BMP_pressure;BME280_temperature;BME280_humidity;BME280_pressure;Samples;Min_cycle;Max_cycle;Signal;HPM_P1;HPM_P2
2021/05/11 00:01:00;;;;;;;4.67;3.22;;;18.10;99.90;;;;;;1841064;76;21149;-69
2021/05/11 00:03:27;;;;;;;4.85;3.20;;;18.00;99.90;;;;;;1849129;76;21231;-68
2021/05/11 00:05:55;;;;;;;6.87;3.75;;;18.00;99.90;;;;;;1836676;76;21736;-69
2021/05/11 00:08:22;;;;;;;4.83;3.40;;;18.00;99.90;;;;;;1839493;76;21113;-68
2021/05/11 00:10:49;;;;;;;4.30;3.67;;;18.00;99.90;;;;;;1843608;76;21108;-69
2021/05/11 00:13:17;;;;;;;8.18;3.62;;;18.00;99.90;;;;;;1845828;76;21251;-68
2021/05/11 00:15:45;;;;;;;6.50;3.12;;;18.00;99.90;;;;;;1844515;71;21170;-71
2021/05/11 00:18:14;;;;;;;5.90;3.20;;;18.00;99.90;;;;;;1839383;76;21118;-70
2021/05/11 00:20:41;;;;;;;5.85;3.02;;;18.00;99.90;;;;;;1843008;76;21823;-70
2021/05/11 00:23:09;;;;;;;6.00;2.92;;;18.00;99.90;;;;;;1846899;76;21494;-71
2021/05/11 00:25:36;;;;;;;7.47;3.27;;;18.00;99.90;;;;;;1836771;76;21156;-70
2021/05/11 00:28:04;;;;;;;4.47;2.77;;;17.90;99.90;;;;;;1830250;77;21004;-71
2021/05/11 00:30:32;;;;;;;7.45;3.15;;;17.90;99.90;;;;;;1834582;77;21031;-70
2021/05/11 00:32:59;;;;;;;7.58;3.85;;;17.90;99.90;;;;;;1835182;77;21007;-70
2021/05/11 00:35:27;;;;;;;6.08;2.80;;;17.90;99.90;;;;;;1837114;77;21548;-71
2021/05/11 00:37:54;;;;;;;6.58;2.65;;;18.00;99.90;;;;;;1828129;77;21170;-70
2021/05/11 00:40:22;;;;;;;8.03;2.77;;;17.90;99.90;;;;;;1830140;77;21204;-70
2021/05/11 00:42:49;;;;;;;6.00;2.37;;;17.90;99.90;;;;;;1833619;76;21168;-69
2021/05/11 00:45:17;;;;;;;4.20;2.20;;;17.80;99.90;;;;;;1835384;77;21199;-69
2021/05/11 00:47:44;;;;;;;5.50;2.83;;;17.70;99.90;;;;;;1832823;76;21192;-70
2021/05/11 00:50:12;;;;;;;5.72;2.47;;;17.70;99.90;;;;;;1825295;76;21121;-70
2021/05/11 00:52:40;;;;;;;5.50;2.15;;;17.70;99.90;;;;;;1828706;77;21102;-70
2021/05/11 00:55:08;;;;;;;3.75;2.12;;;17.70;99.90;;;;;;1825867;76;21129;-70
2021/05/11 00:57:36;;;;;;;6.00;2.17;;;17.60;99.90;;;;;;1828611;77;21097;-70
2021/05/11 01:00:07;;;;;;;5.45;2.05;;;17.60;99.90;;;;;;1825842;76;21098;-70
2021/05/11 01:02:35;;;;;;;4.17;1.90;;;17.70;99.90;;;;;;1830775;77;21097;-70
2021/05/11 01:05:03;;;;;;;5.08;2.20;;;17.60;99.90;;;;;;1830394;76;21799;-70
2021/05/11 01:07:31;;;;;;;2.70;1.60;;;17.60;99.90;;;;;;1829170;77;21113;-70
2021/05/11 01:09:58;;;;;;;4.10;1.72;;;17.60;99.90;;;;;;1831135;77;21594;-70
2021/05/11 01:12:26;;;;;;;3.90;1.70;;;17.50;99.90;;;;;;1834119;76;21180;-70
2021/05/11 01:14:54;;;;;;;5.03;1.70;;;17.50;99.90;;;;;;1830729;77;21086;-69
2021/05/11 01:17:27;;;;;;;3.80;1.52;;;17.40;99.90;;;;;;1831503;76;21047;-70
2021/05/11 01:19:54;;;;;;;3.70;1.35;;;17.40;99.90;;;;;;1826492;77;21251;-68
2021/05/11 01:22:50;;;;;;;3.10;1.30;;;17.40;99.90;;;;;;1830074;76;21636;-69
2021/05/11 01:25:16;;;;;;;5.67;1.45;;;17.40;99.90;;;;;;1831592;76;21157;-69
2021/05/11 01:27:59;;;;;;;6.47;1.62;;;17.30;99.90;;;;;;1831993;77;21174;-69
2021/05/11 01:44:09;;;;;;;4.15;2.02;;;17.20;99.90;;;;;;1829146;77;21196;-69
2021/05/11 01:46:58;;;;;;;5.90;2.20;;;17.30;99.90;;;;;;1825899;77;21133;-69
2021/05/11 01:52:03;;;;;;;5.10;2.65;;;17.10;99.90;;;;;;1829227;76;21493;-68
2021/05/11 02:24:10;;;;;;;5.83;4.00;;;17.00;99.90;;;;;;1829973;76;20176;-69
2021/05/11 02:26:34;;;;;;;7.78;3.58;;;17.00;99.90;;;;;;1831199;77;21620;-69
2021/05/11 02:29:02;;;;;;;5.25;3.98;;;17.00;99.90;;;;;;1826438;77;21098;-68
2021/05/11 02:31:29;;;;;;;8.63;3.80;;;17.00;99.90;;;;;;1828043;77;21122;-69
2021/05/11 02:33:57;;;;;;;7.17;3.40;;;16.90;99.90;;;;;;1828123;76;21113;-69
2021/05/11 02:36:25;;;;;;;6.37;3.47;;;16.90;99.90;;;;;;1836727;77;22509;-69
2021/05/11 02:38:53;;;;;;;7.47;3.80;;;16.90;99.90;;;;;;1831004;77;21168;-69
2021/05/11 02:41:20;;;;;;;8.40;3.25;;;16.90;99.90;;;;;;1830323;77;21078;-68
2021/05/11 02:43:48;;;;;;;5.37;3.12;;;16.90;99.90;;;;;;1826528;77;21630;-70
2021/05/11 02:46:15;;;;;;;3.98;2.72;;;16.90;99.90;;;;;;1825376;77;21748;-67
2021/05/11 02:48:43;;;;;;;5.75;3.22;;;16.90;99.90;;;;;;1828123;77;21050;-70
2021/05/11 02:51:10;;;;;;;6.92;2.87;;;16.90;99.90;;;;;;1824372;77;21121;-70
2021/05/11 02:53:38;;;;;;;7.17;2.67;;;16.80;99.90;;;;;;1830467;77;21090;-68
2021/05/11 02:56:05;;;;;;;5.28;3.00;;;16.80;99.90;;;;;;1821958;77;21173;-69
2021/05/11 02:58:35;;;;;;;6.62;2.67;;;16.80;99.90;;;;;;1821885;77;21631;-69
2021/05/11 03:01:02;;;;;;;5.78;2.75;;;16.80;99.90;;;;;;1820466;77;21106;-70
2021/05/11 03:03:29;;;;;;;6.17;2.75;;;16.80;99.90;;;;;;1826706;77;21175;-68
2021/05/11 03:05:58;;;;;;;6.62;2.83;;;16.90;99.90;;;;;;1825434;77;21157;-68
2021/05/11 03:08:25;;;;;;;5.62;2.80;;;17.00;99.90;;;;;;1825976;77;21595;-68
2021/05/11 03:10:53;;;;;;;7.83;2.83;;;16.90;99.90;;;;;;1828676;77;21171;-69
2021/05/11 03:13:20;;;;;;;4.20;2.50;;;16.90;99.90;;;;;;1828606;77;21113;-69
2021/05/11 03:15:48;;;;;;;7.17;2.70;;;16.90;99.90;;;;;;1827296;77;21592;-68
2021/05/11 03:18:15;;;;;;;4.50;2.58;;;16.70;99.90;;;;;;1826952;77;21113;-68
2021/05/11 03:20:43;;;;;;;5.60;2.70;;;16.60;99.90;;;;;;1823844;77;21098;-68
2021/05/11 03:23:10;;;;;;;4.25;2.47;;;16.60;99.90;;;;;;1823006;77;21094;-68
2021/05/11 03:25:39;;;;;;;3.42;2.45;;;16.50;99.90;;;;;;1826418;76;21188;-67
2021/05/11 03:28:07;;;;;;;6.42;2.83;;;16.50;99.90;;;;;;1824554;77;21134;-68
2021/05/11 03:30:34;;;;;;;6.05;2.20;;;16.50;99.90;;;;;;1829223;77;21154;-67
2021/05/11 03:33:02;;;;;;;2.58;1.90;;;16.40;99.90;;;;;;1827148;77;21039;-67
2021/05/11 03:35:29;;;;;;;5.33;2.45;;;16.40;99.90;;;;;;1822772;77;21223;-68
2021/05/11 03:37:57;;;;;;;3.92;2.52;;;16.60;99.90;;;;;;1830613;77;21611;-69
2021/05/11 03:40:24;;;;;;;5.15;2.70;;;16.50;99.90;;;;;;1826120;77;21148;-68
2021/05/11 03:42:55;;;;;;;5.85;2.40;;;16.40;99.90;;;;;;1825860;77;21091;-69
2021/05/11 03:45:28;;;;;;;4.25;1.90;;;16.50;99.90;;;;;;1826027;77;21129;-69
2021/05/11 03:47:53;;;;;;;6.25;2.25;;;16.50;99.90;;;;;;1825775;77;21125;-68
2021/05/11 03:50:19;;;;;;;7.03;2.10;;;16.40;99.90;;;;;;1830293;77;21105;-69
2021/05/11 03:52:47;;;;;;;5.33;2.02;;;16.40;99.90;;;;;;1826126;77;21121;-68
2021/05/11 03:55:14;;;;;;;4.83;2.05;;;16.40;99.90;;;;;;1824352;77;21787;-69
2021/05/11 03:57:42;;;;;;;5.58;2.50;;;16.40;99.90;;;;;;1822270;77;21168;-68
2021/05/11 04:00:10;;;;;;;3.52;2.08;;;16.40;99.90;;;;;;1821977;77;21087;-69
2021/05/11 04:02:38;;;;;;;4.33;2.17;;;16.40;99.90;;;;;;1811027;78;21102;-69
2021/05/11 04:05:13;;;;;;;3.67;2.12;;;16.40;99.90;;;;;;1825579;77;21157;-68
2021/05/11 04:07:36;;;;;;;4.83;2.22;;;16.40;99.90;;;;;;1821776;77;21636;-68
2021/05/11 04:10:51;;;;;;;9.03;2.52;;;16.40;99.90;;;;;;1830518;77;21612;-69
2021/05/11 04:12:51;;;;;;;6.83;2.58;;;16.40;99.90;;;;;;1795826;77;21046;-69
2021/05/11 04:17:44;;;;;;;4.30;2.10;;;16.30;99.90;;;;;;1830275;77;21129;-67
2021/05/11 04:20:13;;;;;;;6.10;2.40;;;16.30;99.90;;;;;;1821764;77;21509;-67
2021/05/11 04:22:40;;;;;;;5.85;2.67;;;16.30;99.90;;;;;;1828356;77;21121;-68
2021/05/11 04:25:08;;;;;;;6.03;2.90;;;16.40;99.90;;;;;;1826278;77;21144;-69
2021/05/11 04:27:36;;;;;;;5.97;2.35;;;16.30;99.90;;;;;;1826294;77;21137;-69
2021/05/11 04:30:05;;;;;;;6.28;2.30;;;16.20;99.90;;;;;;1829000;77;21106;-68
2021/05/11 04:32:32;;;;;;;5.83;2.75;;;16.10;99.90;;;;;;1827850;77;21133;-68
2021/05/11 04:35:00;;;;;;;5.83;2.58;;;16.20;99.90;;;;;;1826931;77;21122;-69
2021/05/11 04:37:28;;;;;;;4.62;1.92;;;16.20;99.90;;;;;;1826012;77;21097;-69
2021/05/11 04:39:56;;;;;;;3.67;2.35;;;16.20;99.90;;;;;;1832064;77;21637;-69
2021/05/11 04:42:23;;;;;;;5.83;2.05;;;16.20;99.90;;;;;;1824649;77;21133;-69
2021/05/11 04:44:52;;;;;;;3.72;2.02;;;16.20;99.90;;;;;;1827895;77;21147;-68
2021/05/11 04:47:21;;;;;;;6.50;2.30;;;16.20;99.90;;;;;;1828842;77;21146;-69
2021/05/11 04:49:51;;;;;;;5.95;2.20;;;16.40;99.90;;;;;;1825061;77;21182;-68
2021/05/11 04:52:18;;;;;;;6.53;2.12;;;16.30;99.90;;;;;;1821756;77;21157;-71
2021/05/11 04:54:46;;;;;;;5.22;2.15;;;16.30;99.90;;;;;;1825965;77;21575;-71
2021/05/11 04:57:13;;;;;;;3.75;2.08;;;16.30;99.90;;;;;;1830296;77;21101;-71
2021/05/11 04:59:41;;;;;;;4.78;2.00;;;16.20;99.90;;;;;;1822659;77;21091;-70
2021/05/11 05:02:10;;;;;;;4.92;2.12;;;16.30;99.90;;;;;;1828442;77;21141;-70
2021/05/11 05:04:38;;;;;;;3.33;1.80;;;16.30;99.90;;;;;;1826333;77;21211;-70
2021/05/11 05:07:06;;;;;;;3.65;1.87;;;16.30;99.90;;;;;;1827136;77;21618;-70
2021/05/11 05:09:33;;;;;;;4.35;1.90;;;16.30;99.90;;;;;;1824761;77;21031;-71
2021/05/11 05:12:01;;;;;;;4.83;2.15;;;16.20;99.90;;;;;;1826017;77;21082;-70
2021/05/11 05:14:28;;;;;;;4.42;2.08;;;16.30;99.90;;;;;;1832652;77;21100;-70
2021/05/11 05:16:56;;;;;;;6.15;2.17;;;16.30;99.90;;;;;;1826343;77;21125;-71
2021/05/11 05:19:23;;;;;;;4.55;2.22;;;16.30;99.90;;;;;;1825145;77;21528;-69
2021/05/11 05:21:51;;;;;;;3.80;1.85;;;16.20;99.90;;;;;;1830840;77;21047;-70
2021/05/11 05:24:27;;;;;;;3.25;1.90;;;16.20;99.90;;;;;;1820689;77;21137;-70
2021/05/11 05:26:52;;;;;;;5.40;1.82;;;16.10;99.90;;;;;;1820225;77;21205;-71
2021/05/11 05:29:19;;;;;;;4.75;1.98;;;16.10;99.90;;;;;;1826161;77;21181;-71
2021/05/11 05:31:47;;;;;;;2.50;1.70;;;16.10;99.90;;;;;;1827889;77;21141;-70
2021/05/11 05:34:14;;;;;;;3.27;2.47;;;16.10;99.90;;;;;;1827303;77;21117;-70
2021/05/11 05:36:42;;;;;;;4.53;2.27;;;16.10;99.90;;;;;;1825712;77;21223;-71
2021/05/11 05:39:10;;;;;;;7.53;2.70;;;16.20;99.90;;;;;;1823494;77;21183;-70
2021/05/11 05:41:37;;;;;;;5.22;3.10;;;16.30;99.90;;;;;;1824001;77;21124;-69
2021/05/11 05:44:05;;;;;;;5.40;3.08;;;16.40;99.90;;;;;;1826426;77;21188;-71
2021/05/11 05:46:33;;;;;;;9.33;3.42;;;16.30;99.90;;;;;;1828371;77;21669;-71
2021/05/11 05:49:00;;;;;;;8.60;3.22;;;16.30;99.90;;;;;;1824913;77;21540;-70
2021/05/11 05:51:28;;;;;;;4.50;3.27;;;16.40;99.90;;;;;;1826737;77;21125;-71
2021/05/11 05:53:56;;;;;;;6.42;3.67;;;16.40;99.90;;;;;;1826411;77;21122;-70
2021/05/11 05:56:23;;;;;;;5.22;3.70;;;16.40;99.90;;;;;;1830755;77;21747;-68
2021/05/11 05:58:51;;;;;;;5.50;3.33;;;16.40;99.90;;;;;;1826545;77;21184;-70
2021/05/11 06:01:24;;;;;;;3.80;3.30;;;16.50;99.90;;;;;;1822682;77;21180;-71
2021/05/11 06:03:51;;;;;;;4.92;3.42;;;16.40;99.90;;;;;;1822088;77;21140;-71
2021/05/11 06:06:24;;;;;;;4.75;2.87;;;16.50;99.90;;;;;;1820317;77;21157;-69
2021/05/11 06:08:52;;;;;;;3.40;2.87;;;16.50;99.90;;;;;;1828009;77;21169;-70
2021/05/11 06:12:07;;;;;;;3.22;2.50;;;16.60;99.90;;;;;;1829583;77;21128;-69
2021/05/11 06:14:09;;;;;;;3.40;2.10;;;16.60;99.90;;;;;;1819474;77;21698;-69
2021/05/11 06:19:12;;;;;;;3.33;2.30;;;16.60;99.90;;;;;;1830668;77;21227;-69
2021/05/11 06:21:39;;;;;;;2.77;2.22;;;16.50;99.90;;;;;;1829317;77;21087;-70
2021/05/11 06:24:08;;;;;;;5.12;2.50;;;16.40;99.90;;;;;;1823013;77;21087;-71
2021/05/11 06:26:35;;;;;;;3.50;2.05;;;16.50;99.90;;;;;;1828103;77;21662;-70
2021/05/11 06:29:06;;;;;;;2.40;1.80;;;16.50;99.90;;;;;;1826328;77;21078;-71
2021/05/11 06:31:32;;;;;;;2.20;2.00;;;16.50;99.90;;;;;;1823307;77;21191;-71
2021/05/11 06:34:01;;;;;;;4.22;1.82;;;16.50;99.90;;;;;;1826608;77;21055;-74
2021/05/11 06:36:29;;;;;;;3.67;2.05;;;16.40;99.90;;;;;;1827973;77;21176;-69
2021/05/11 06:38:57;;;;;;;2.47;1.60;;;16.50;99.90;;;;;;1821845;77;21188;-70
2021/05/11 06:41:25;;;;;;;7.37;1.92;;;16.50;99.90;;;;;;1830833;77;21567;-70
2021/05/11 06:43:59;;;;;;;2.22;1.75;;;16.50;99.90;;;;;;1829169;77;21141;-70
2021/05/11 06:47:05;;;;;;;2.10;1.52;;;16.50;99.90;;;;;;1826225;77;21141;-68
2021/05/11 06:53:58;;;;;;;2.42;1.72;;;16.30;99.90;;;;;;1828828;77;21133;-69
2021/05/11 06:56:25;;;;;;;2.27;1.67;;;16.30;99.90;;;;;;1830065;77;21136;-69
2021/05/11 06:58:53;;;;;;;2.35;1.60;;;16.20;99.90;;;;;;1830107;77;21193;-68
2021/05/11 07:01:21;;;;;;;2.33;1.90;;;16.20;99.90;;;;;;1825202;77;21495;-69
2021/05/11 07:03:49;;;;;;;2.55;1.90;;;16.20;99.90;;;;;;1826301;77;21451;-69
2021/05/11 07:06:18;;;;;;;3.27;1.70;;;16.30;99.90;;;;;;1824075;77;21123;-70
2021/05/11 07:08:50;;;;;;;1.90;1.70;;;16.30;99.90;;;;;;1824897;77;21134;-69
2021/05/11 07:13:51;;;;;;;3.92;1.82;;;16.30;99.90;;;;;;1824821;77;21663;-69
2021/05/11 07:16:18;;;;;;;2.05;1.80;;;16.30;99.90;;;;;;1826910;77;21130;-69
2021/05/11 07:18:46;;;;;;;1.90;1.70;;;16.40;99.90;;;;;;1831181;77;21228;-69
2021/05/11 07:21:13;;;;;;;3.65;1.82;;;16.40;99.90;;;;;;1825820;77;21140;-70
2021/05/11 07:23:41;;;;;;;2.20;2.00;;;16.50;99.90;;;;;;1825784;77;21146;-70
2021/05/11 07:26:13;;;;;;;1.82;1.65;;;16.40;99.90;;;;;;1828061;77;21168;-69
2021/05/11 07:31:19;;;;;;;2.27;2.08;;;16.40;99.90;;;;;;1828600;77;21262;-69
2021/05/11 07:33:48;;;;;;;2.45;2.25;;;16.30;99.90;;;;;;1825789;77;21145;-69
2021/05/11 07:36:16;;;;;;;2.90;2.50;;;16.30;99.90;;;;;;1824514;77;21275;-68
2021/05/11 07:38:49;;;;;;;3.00;2.65;;;16.30;99.90;;;;;;1825507;77;21122;-68
2021/05/11 07:41:18;;;;;;;2.83;2.62;;;16.40;99.90;;;;;;1826840;77;21117;-68
2021/05/11 07:43:51;;;;;;;3.22;2.42;;;16.30;99.90;;;;;;1825260;77;21054;-70
2021/05/11 07:46:34;;;;;;;4.97;2.75;;;16.30;99.90;;;;;;1823800;77;21207;-69
2021/05/11 08:05:01;;;;;;;3.35;2.80;;;16.20;99.90;;;;;;1945146;71;21187;-70
2021/05/11 08:10:18;;;;;;;4.85;2.87;;;16.20;99.90;;;;;;1956768;72;21116;-70
2021/05/11 08:15:26;;;;;;;3.58;2.60;;;16.20;99.90;;;;;;1930809;73;21191;-72
2021/05/11 08:18:07;;;;;;;2.87;2.27;;;16.20;99.90;;;;;;1908483;74;21650;-72
2021/05/11 08:28:44;;;;;;;3.90;2.33;;;16.20;99.90;;;;;;1936029;72;21781;-69
2021/05/11 08:31:12;;;;;;;4.17;2.62;;;16.10;99.90;;;;;;1933473;73;21085;-72
2021/05/11 08:33:39;;;;;;;3.33;2.60;;;16.00;99.90;;;;;;1889748;74;21131;-71
2021/05/11 08:36:07;;;;;;;4.85;2.75;;;15.90;99.90;;;;;;1909910;73;21088;-69
2021/05/11 08:38:34;;;;;;;4.95;2.80;;;15.90;99.90;;;;;;1903623;73;21153;-69
2021/05/11 08:41:02;;;;;;;5.78;2.62;;;16.00;99.90;;;;;;1907729;73;21638;-69
2021/05/11 08:43:37;;;;;;;4.12;2.40;;;16.00;99.90;;;;;;1907457;73;21215;-70
2021/05/11 08:46:07;;;;;;;6.20;2.30;;;16.10;99.90;;;;;;1903817;73;21112;-69
2021/05/11 08:48:36;;;;;;;6.58;2.20;;;16.10;99.90;;;;;;1913837;73;21505;-72
2021/05/11 08:51:25;;;;;;;4.78;2.45;;;16.20;99.90;;;;;;1913997;73;21093;-71
2021/05/11 09:16:44;;;;;;;3.87;1.92;;;15.90;99.90;;;;;;1940295;72;21552;-69
2021/05/11 09:27:26;;;;;;;2.87;1.77;;;15.90;99.90;;;;;;1935689;72;21136;-67
2021/05/11 09:54:39;;;;;;;3.72;2.08;;;15.90;99.90;;;;;;1935609;73;21122;-67
2021/05/11 09:57:32;;;;;;;5.87;1.92;;;15.90;99.90;;;;;;1896509;74;21101;-70
2021/05/11 10:00:35;;;;;;;4.58;2.22;;;16.00;99.90;;;;;;1928742;73;21097;-68
2021/05/11 10:14:52;;;;;;;5.37;2.15;;;16.40;99.90;;;;;;1930454;73;21118;-70
2021/05/11 10:31:25;;;;;;;6.80;1.90;;;16.60;99.90;;;;;;1936985;73;21067;-70
2021/05/11 10:40:13;;;;;;;6.10;2.85;;;16.60;99.90;;;;;;1922913;73;21021;-70
2021/05/11 10:47:34;;;;;;;6.72;1.87;;;16.40;99.90;;;;;;1897148;74;21133;-71
2021/05/11 10:50:02;;;;;;;10.90;2.47;;;16.50;99.90;;;;;;1934436;72;21155;-70
2021/05/11 10:52:42;;;;;;;4.90;1.90;;;16.50;99.90;;;;;;1934012;72;21098;-70
2021/05/11 10:55:17;;;;;;;4.87;1.90;;;16.70;99.90;;;;;;1894977;74;21178;-72
2021/05/11 10:57:57;;;;;;;5.70;2.12;;;16.70;99.90;;;;;;1911073;73;21160;-74
2021/05/11 11:00:41;;;;;;;4.83;2.27;;;16.90;99.90;;;;;;1900221;73;21587;-73
2021/05/11 11:03:27;;;;;;;4.67;1.90;;;17.10;99.90;;;;;;1910540;73;21807;-71
2021/05/11 11:05:57;;;;;;;4.62;2.02;;;17.20;99.90;;;;;;1908168;73;21540;-71
2021/05/11 11:08:42;;;;;;;5.90;2.15;;;17.20;99.90;;;;;;1911656;73;21112;-71
2021/05/11 11:11:20;;;;;;;5.20;1.72;;;17.20;99.90;;;;;;1913802;73;21714;-70
2021/05/11 11:13:52;;;;;;;3.58;1.30;;;17.30;99.90;;;;;;1901785;73;21115;-71
2021/05/11 11:16:19;;;;;;;;;;;17.30;99.90;;;;;;1920200;73;21033;-70
2021/05/11 11:18:47;;;;;;;4.28;1.20;;;17.30;99.90;;;;;;1906479;73;20180;-70
2021/05/11 11:21:19;;;;;;;4.40;1.42;;;17.20;99.90;;;;;;1906147;73;21114;-72
2021/05/11 11:23:49;;;;;;;2.70;1.30;;;17.20;99.90;;;;;;1902986;73;21135;-70
2021/05/11 11:26:28;;;;;;;3.40;1.25;;;17.20;99.90;;;;;;1908998;73;21097;-70
2021/05/11 11:29:10;;;;;;;3.87;1.27;;;17.20;99.90;;;;;;1907013;73;21049;-71
2021/05/11 11:31:39;;;;;;;2.70;1.02;;;17.20;99.90;;;;;;1913716;73;21093;-71
2021/05/11 11:34:22;;;;;;;4.83;1.62;;;17.30;99.90;;;;;;1898694;75;21142;-70
2021/05/11 11:36:55;;;;;;;;;;;17.20;99.90;;;;;;1918853;73;21137;-71
2021/05/11 11:39:22;;;;;;;4.33;1.40;;;17.10;99.90;;;;;;1914035;73;20223;-70
2021/05/11 11:41:51;;;;;;;3.45;1.52;;;17.00;99.90;;;;;;1908802;73;21155;-71
2021/05/11 11:44:24;;;;;;;4.20;1.50;;;17.00;99.90;;;;;;1908748;73;21160;-70
2021/05/11 11:47:06;;;;;;;3.10;1.50;;;16.90;99.90;;;;;;1909582;73;21684;-70
2021/05/11 11:49:37;;;;;;;3.10;1.67;;;17.00;99.90;;;;;;1903894;73;21092;-71
2021/05/11 11:52:23;;;;;;;5.78;2.25;;;17.20;99.90;;;;;;1908953;73;21713;-70
2021/05/11 11:55:06;;;;;;;5.15;1.60;;;17.20;99.90;;;;;;1914345;73;21222;-69
2021/05/11 12:00:08;;;;;;;4.05;1.32;;;17.30;99.90;;;;;;1910700;73;20231;-75
2021/05/11 12:02:37;;;;;;;5.17;1.40;;;17.20;99.90;;;;;;1905243;75;21089;-70
2021/05/11 12:05:12;;;;;;;3.90;1.50;;;17.30;99.90;;;;;;1907779;73;21050;-70
2021/05/11 12:07:57;;;;;;;9.43;1.82;;;17.30;99.90;;;;;;1919530;73;21174;-71
2021/05/11 12:10:13;;;;;;;3.30;1.30;;;17.20;99.90;;;;;;1905208;73;21163;-71
2021/05/11 12:12:40;;;;;;;4.08;2.00;;;17.30;99.90;;;;;;1909157;73;21097;-71
2021/05/11 12:15:17;;;;;;;6.53;1.70;;;17.30;99.90;;;;;;1907038;73;21130;-72
2021/05/11 12:17:45;;;;;;;4.60;1.70;;;17.40;99.90;;;;;;1908431;73;21144;-71
2021/05/11 12:20:23;;;;;;;4.10;1.52;;;17.40;99.90;;;;;;1914540;73;21209;-71
2021/05/11 12:22:49;;;;;;;5.00;1.60;;;17.40;99.90;;;;;;1907720;73;21003;-71
2021/05/11 12:25:25;;;;;;;4.92;1.72;;;17.50;99.90;;;;;;1916520;73;21051;-71
2021/05/11 12:27:53;;;;;;;5.40;1.80;;;17.50;99.90;;;;;;1914840;73;21033;-70
2021/05/11 12:30:22;;;;;;;5.50;2.00;;;17.30;99.90;;;;;;1903492;73;21017;-72
2021/05/11 12:32:49;;;;;;;5.28;1.85;;;17.30;99.90;;;;;;1944797;73;21018;-70
2021/05/11 12:35:17;;;;;;;4.28;1.87;;;17.30;99.90;;;;;;1905403;74;21198;-71
2021/05/11 12:37:53;;;;;;;3.40;1.70;;;17.30;99.90;;;;;;1928356;73;21143;-70
2021/05/11 12:40:25;;;;;;;4.65;2.00;;;17.30;99.90;;;;;;1932535;72;21144;-70
2021/05/11 12:42:52;;;;;;;5.47;1.60;;;17.20;99.90;;;;;;1911113;74;22144;-71
2021/05/11 12:45:20;;;;;;;6.00;2.08;;;17.30;99.90;;;;;;1905765;74;21234;-69
2021/05/11 12:47:52;;;;;;;7.67;1.98;;;17.30;99.90;;;;;;1937890;72;21171;-70
2021/05/11 12:50:30;;;;;;;10.82;1.92;;;17.20;99.90;;;;;;1937131;73;21120;-69
2021/05/11 12:52:54;;;;;;;8.90;1.80;;;17.10;99.90;;;;;;1914031;74;21470;-69
2021/05/11 12:56:04;;;;;;;4.45;1.40;;;17.20;99.90;;;;;;1944191;73;21497;-69
2021/05/11 13:01:24;;;;;;;4.62;1.90;;;17.20;99.90;;;;;;1933574;72;21174;-71
2021/05/11 13:13:43;;;;;;;4.15;1.75;;;16.90;99.90;;;;;;1940763;72;21175;-72
2021/05/11 13:15:13;;;;;;;3.85;1.65;;;17.00;99.90;;;;;;1901378;73;21106;-71
2021/05/11 13:23:07;;;;;;;6.60;1.80;;;17.10;99.90;;;;;;1944935;72;21136;-71
2021/05/11 13:25:32;;;;;;;5.67;1.92;;;17.20;99.90;;;;;;1907451;74;21128;-71
2021/05/11 13:28:06;;;;;;;5.75;1.87;;;17.20;99.90;;;;;;1933861;73;21199;-71
2021/05/11 13:30:34;;;;;;;4.12;1.52;;;17.20;99.90;;;;;;1934608;72;21061;-71
2021/05/11 13:33:09;;;;;;;4.83;1.60;;;17.30;99.90;;;;;;1929261;72;21109;-71
2021/05/11 13:35:24;;;;;;;4.83;1.77;;;17.30;99.90;;;;;;1936589;72;21536;-71
2021/05/11 13:37:52;;;;;;;5.42;1.82;;;17.20;99.90;;;;;;1935355;73;21523;-71
2021/05/11 13:40:19;;;;;;;3.00;1.37;;;17.20;99.90;;;;;;1927451;73;21104;-71
2021/05/11 13:42:47;;;;;;;5.92;1.90;;;17.10;99.90;;;;;;1931603;72;21171;-71
2021/05/11 13:45:15;;;;;;;4.22;1.80;;;17.00;99.90;;;;;;1902769;74;21094;-71
2021/05/11 13:47:55;;;;;;;4.53;1.62;;;17.00;99.90;;;;;;1931376;72;21108;-71
2021/05/11 13:50:12;;;;;;;3.77;1.65;;;16.90;99.90;;;;;;1923799;73;21109;-70
2021/05/11 13:52:40;;;;;;;4.97;1.72;;;16.90;99.90;;;;;;1933790;72;21082;-71
2021/05/11 13:55:18;;;;;;;6.20;2.00;;;16.90;99.90;;;;;;1914119;74;21117;-71
2021/05/11 14:03:08;;;;;;;6.08;2.10;;;16.80;99.90;;;;;;1936332;73;21728;-72
2021/05/11 14:05:36;;;;;;;6.42;1.82;;;16.70;99.90;;;;;;1975431;71;21691;-71
2021/05/11 14:08:04;;;;;;;5.10;1.90;;;16.70;99.90;;;;;;1979328;72;21575;-71
2021/05/11 14:10:31;;;;;;;8.40;1.92;;;16.70;99.90;;;;;;1981623;72;21190;-71
2021/05/11 14:12:59;;;;;;;5.58;1.87;;;16.60;99.90;;;;;;1980888;72;21054;-71
2021/05/11 14:15:28;;;;;;;5.65;1.82;;;16.70;99.90;;;;;;1973017;72;21098;-72
2021/05/11 14:17:56;;;;;;;6.85;2.20;;;16.80;99.90;;;;;;1952917;72;21077;-71
2021/05/11 14:20:24;;;;;;;5.53;2.22;;;16.80;99.90;;;;;;1972176;72;21133;-68
2021/05/11 14:22:51;;;;;;;5.42;1.80;;;16.90;99.90;;;;;;1956475;72;21101;-71
2021/05/11 14:25:19;;;;;;;6.92;2.12;;;17.00;99.90;;;;;;1955085;72;21730;-69
2021/05/11 14:27:46;;;;;;;8.50;2.22;;;16.90;99.90;;;;;;1972723;72;21073;-70
2021/05/11 14:30:15;;;;;;;10.85;2.30;;;17.00;99.90;;;;;;1955806;72;21839;-68
2021/05/11 14:32:42;;;;;;;7.90;2.20;;;17.10;99.90;;;;;;1968570;72;21207;-70
2021/05/11 14:35:10;;;;;;;7.62;2.05;;;17.00;99.90;;;;;;1955888;72;21210;-68
2021/05/11 14:37:37;;;;;;;6.90;1.90;;;17.00;99.90;;;;;;1968763;72;21092;-69
2021/05/11 14:40:05;;;;;;;9.95;2.10;;;17.00;99.90;;;;;;1953098;73;21065;-69
2021/05/11 14:42:33;;;;;;;7.37;2.10;;;16.90;99.90;;;;;;1972314;72;21035;-69
2021/05/11 14:45:00;;;;;;;6.70;2.27;;;16.90;99.90;;;;;;1954917;72;21107;-69
2021/05/11 14:47:29;;;;;;;6.72;2.33;;;16.90;99.90;;;;;;1972173;72;21110;-68
2021/05/11 14:49:56;;;;;;;7.42;2.27;;;16.80;99.90;;;;;;1957516;72;21152;-68
2021/05/11 14:52:26;;;;;;;7.00;2.20;;;16.70;99.90;;;;;;1970220;72;20988;-69
2021/05/11 14:54:53;;;;;;;6.60;2.58;;;16.70;99.90;;;;;;1954974;72;21121;-69
2021/05/11 14:57:20;;;;;;;7.47;2.02;;;16.80;99.90;;;;;;1912676;73;21096;-69
2021/05/11 14:59:48;;;;;;;5.05;1.80;;;16.70;99.90;;;;;;1914163;73;21053;-69
2021/05/11 15:02:16;;;;;;;7.60;2.60;;;16.70;99.90;;;;;;1919481;73;21045;-69
2021/05/11 15:04:44;;;;;;;8.83;2.50;;;16.70;99.90;;;;;;1920577;73;21207;-70
2021/05/11 15:07:11;;;;;;;5.72;1.75;;;16.70;99.90;;;;;;1912734;73;21086;-70
2021/05/11 15:09:39;;;;;;;8.53;2.05;;;16.70;99.90;;;;;;1911438;74;21085;-69
2021/05/11 15:12:07;;;;;;;6.85;2.20;;;16.70;99.90;;;;;;1918088;73;21104;-68
2021/05/11 15:14:34;;;;;;;5.42;1.92;;;16.70;99.90;;;;;;2006676;70;21541;-67
2021/05/11 15:17:58;;;;;;;6.87;2.33;;;16.70;99.90;;;;;;2014261;70;21058;-66
2021/05/11 15:19:38;;;;;;;5.72;2.35;;;16.70;99.90;;;;;;2008528;70;21174;-68
2021/05/11 15:22:05;;;;;;;6.08;2.30;;;16.70;99.90;;;;;;2010530;70;21105;-69
2021/05/11 15:24:34;;;;;;;5.35;2.27;;;16.70;99.90;;;;;;2014886;71;21114;-68
2021/05/11 15:27:01;;;;;;;6.95;2.33;;;16.70;99.90;;;;;;2008092;71;21167;-69
2021/05/11 15:29:29;;;;;;;5.72;2.35;;;16.70;99.90;;;;;;2012262;71;22147;-68
2021/05/11 15:31:57;;;;;;;6.75;2.40;;;16.70;99.90;;;;;;2009929;71;21105;-68
2021/05/11 15:34:27;;;;;;;4.53;2.22;;;16.80;99.90;;;;;;2011597;70;21217;-70
2021/05/11 15:36:55;;;;;;;8.63;2.50;;;16.80;99.90;;;;;;2012178;71;21098;-69
2021/05/11 15:39:22;;;;;;;7.55;2.50;;;16.80;99.90;;;;;;2012879;71;21077;-69
2021/05/11 15:41:50;;;;;;;4.83;2.42;;;16.70;99.90;;;;;;2012964;71;21116;-69
2021/05/11 15:44:17;;;;;;;8.30;2.35;;;16.80;99.90;;;;;;2004937;70;21508;-69
2021/05/11 15:46:45;;;;;;;6.92;2.87;;;16.70;99.90;;;;;;2011709;71;21046;-69
2021/05/11 15:49:12;;;;;;;9.98;2.65;;;16.70;99.90;;;;;;2016398;71;21073;-69
2021/05/11 15:51:40;;;;;;;6.25;2.22;;;16.80;99.90;;;;;;2013116;71;21061;-68
2021/05/11 15:54:07;;;;;;;6.42;2.58;;;16.70;99.90;;;;;;2011333;70;21109;-67
2021/05/11 15:56:35;;;;;;;5.72;2.65;;;16.80;99.90;;;;;;2012125;71;21496;-68
2021/05/11 15:59:05;;;;;;;8.80;2.92;;;16.80;99.90;;;;;;2012994;70;21062;-67
2021/05/11 16:01:31;;;;;;;11.15;2.65;;;16.90;99.90;;;;;;2009521;71;21138;-67
2021/05/11 16:03:59;;;;;;;7.97;2.70;;;16.70;99.90;;;;;;2009758;70;22164;-66
2021/05/11 16:06:26;;;;;;;6.03;2.50;;;16.70;99.90;;;;;;2005181;70;21077;-67
2021/05/11 16:08:54;;;;;;;7.00;2.45;;;16.80;99.90;;;;;;2009035;71;21073;-68
2021/05/11 16:11:21;;;;;;;5.85;2.45;;;16.80;99.90;;;;;;2008382;70;21036;-68
2021/05/11 16:13:49;;;;;;;5.78;2.02;;;16.80;99.90;;;;;;1998354;71;21542;-67
2021/05/11 16:16:17;;;;;;;6.55;2.83;;;16.80;99.90;;;;;;2004945;71;21078;-66
2021/05/11 16:18:44;;;;;;;4.50;2.20;;;16.90;99.90;;;;;;2002465;70;21090;-67
2021/05/11 16:21:11;;;;;;;3.25;2.12;;;16.90;99.90;;;;;;2000755;71;21064;-67
2021/05/11 16:23:39;;;;;;;5.12;2.47;;;16.90;99.90;;;;;;2000210;70;21496;-68
2021/05/11 16:26:06;;;;;;;6.35;2.47;;;16.90;99.90;;;;;;2004514;70;21064;-69
2021/05/11 16:28:34;;;;;;;6.25;2.50;;;16.90;99.90;;;;;;2007546;70;21070;-68